Currently 55°F in Pinon Hills, California, USA
55°F
66°F / 43°F
2 mph S
0.00"
Tuesday, December 12, 2017 9:26 PM PST

Pinon Hills, California Climate Summary
Typical April Day

Normal High:    69.5°F (20.8°C)
Normal Low:    47.1°F (8.4°C)
Average:    58.0°F (14.4°C)

Hour    Temperature    Wind Speed    Humidity
12:00 AM    53°F (12°C)    3 mph    44%
1:00 AM    52°F (11°C)    4 mph    44%
2:00 AM    51°F (11°C)    3 mph    45%
3:00 AM    51°F (10°C)    3 mph    46%
4:00 AM    50°F (10°C)    3 mph    46%
5:00 AM    50°F (10°C)    3 mph    45%
6:00 AM    49°F (10°C)    3 mph    47%
7:00 AM    51°F (10°C)    3 mph    45%
8:00 AM    56°F (13°C)    3 mph    40%
9:00 AM    59°F (15°C)    4 mph    37%
10:00 AM    61°F (16°C)    4 mph    34%
11:00 AM    63°F (17°C)    5 mph    32%
12:00 PM    65°F (18°C)    5 mph    29%
1:00 PM    66°F (19°C)    5 mph    27%
2:00 PM    67°F (20°C)    5 mph    26%
3:00 PM    68°F (20°C)    6 mph    25%
4:00 PM    68°F (20°C)    5 mph    25%
5:00 PM    66°F (19°C)    6 mph    28%
6:00 PM    65°F (18°C)    6 mph    31%
7:00 PM    62°F (16°C)    4 mph    34%
8:00 PM    58°F (14°C)    4 mph    38%
9:00 PM    56°F (13°C)    3 mph    40%
10:00 PM    55°F (13°C)    3 mph    42%
11:00 PM    54°F (12°C)    3 mph    43%
 

The Pinon Hills, California weather pages are a service of WeatherCurrents.
Copyright ©Tue Dec 12 21:26:45 PST 2017  WeatherCurrents. All rights reserved. - Submit questions and comments - Privacy Policy